createdAt,value
2019-04-07T00:01:05.930Z,56.67
2019-04-07T00:03:37.405Z,56.13
2019-04-07T00:06:10.956Z,55.17
2019-04-07T00:08:43.671Z,53.57
2019-04-07T00:11:15.082Z,51.90
2019-04-07T00:13:47.215Z,51.77
2019-04-07T00:16:22.478Z,56.17
2019-04-07T00:18:53.838Z,54.27
2019-04-07T00:21:25.817Z,58.37
2019-04-07T00:23:58.212Z,54.77
2019-04-07T00:26:28.865Z,54.73
2019-04-07T00:28:59.973Z,56.03
2019-04-07T00:31:31.178Z,54.97
2019-04-07T00:34:02.811Z,55.80
2019-04-07T00:36:36.263Z,54.60
2019-04-07T00:39:09.606Z,56.93
2019-04-07T00:41:40.355Z,58.20
2019-04-07T00:44:11.433Z,57.83
2019-04-07T00:46:44.450Z,63.53
2019-04-07T00:49:15.778Z,64.10
2019-04-07T00:51:47.590Z,63.40
2019-04-07T00:54:18.669Z,61.63
2019-04-07T00:56:49.087Z,64.83
2019-04-07T00:59:21.707Z,61.10
2019-04-07T01:01:55.325Z,64.73
2019-04-07T01:04:26.586Z,65.93
2019-04-07T01:07:00.244Z,69.67
2019-04-07T01:09:32.640Z,71.47
2019-04-07T01:12:03.118Z,67.20
2019-04-07T01:14:33.638Z,65.37
2019-04-07T01:17:06.212Z,65.70
2019-04-07T01:19:39.838Z,69.43
2019-04-07T01:22:12.415Z,64.07
2019-04-07T01:24:44.356Z,62.53
2019-04-07T01:27:15.766Z,57.03
2019-04-07T01:29:46.353Z,51.73
2019-04-07T01:32:17.915Z,46.77
2019-04-07T01:34:50.344Z,47.67
2019-04-07T01:37:22.557Z,48.60
2019-04-07T01:39:54.882Z,51.63
2019-04-07T01:42:41.147Z,45.83
2019-04-07T01:45:38.205Z,53.73
2019-04-07T01:48:25.915Z,51.47
2019-04-07T01:51:21.785Z,55.03
2019-04-07T01:54:05.328Z,47.87
2019-04-07T01:57:05.887Z,68.27
2019-04-07T01:59:57.330Z,57.47
2019-04-07T02:02:56.954Z,58.20
2019-04-07T02:05:57.665Z,56.40
2019-04-07T02:08:47.491Z,59.50
2019-04-07T02:11:28.939Z,56.87
2019-04-07T02:14:22.467Z,54.27
2019-04-07T02:17:04.319Z,58.30
2019-04-07T02:20:00.425Z,54.00
2019-04-07T02:22:54.755Z,53.23
2019-04-07T02:25:53.177Z,55.47
2019-04-07T02:28:55.260Z,53.73
2019-04-07T02:31:34.651Z,54.27
2019-04-07T02:34:26.023Z,59.63
2019-04-07T02:37:20.725Z,59.57
2019-04-07T02:40:10.408Z,67.87
2019-04-07T02:42:59.030Z,59.80
2019-04-07T02:45:50.464Z,56.63
2019-04-07T02:48:33.829Z,55.63
2019-04-07T02:51:24.290Z,47.57
2019-04-07T02:54:09.250Z,46.17
2019-04-07T02:57:08.494Z,50.10
2019-04-07T03:00:07.770Z,47.57
2019-04-07T03:03:16.988Z,45.77
2019-04-07T03:06:00.459Z,45.70
2019-04-07T03:09:05.544Z,44.43
2019-04-07T03:12:03.933Z,42.40
2019-04-07T03:14:45.669Z,44.70
2019-04-07T03:17:31.718Z,44.80
2019-04-07T03:20:13.328Z,43.20
2019-04-07T03:23:07.907Z,46.20
2019-04-07T03:26:08.547Z,41.50
2019-04-07T03:28:58.984Z,43.67
2019-04-07T03:31:45.340Z,43.73
2019-04-07T03:34:32.866Z,41.40
2019-04-07T03:37:25.662Z,41.93
2019-04-07T03:40:06.395Z,40.40
2019-04-07T03:43:09.354Z,43.70
2019-04-07T03:46:08.068Z,39.13
2019-04-07T03:48:57.948Z,39.73
2019-04-07T03:51:54.062Z,40.53
2019-04-07T03:54:39.996Z,40.23
2019-04-07T03:57:39.238Z,41.70
2019-04-07T04:00:56.298Z,42.73
2019-04-07T04:03:38.787Z,41.60
2019-04-07T04:06:32.503Z,41.50
2019-04-07T04:09:11.388Z,43.00
2019-04-07T04:11:48.897Z,43.60
2019-04-07T04:14:34.991Z,43.70
2019-04-07T04:17:06.299Z,42.13
2019-04-07T04:19:38.928Z,41.17
2019-04-07T04:22:09.502Z,42.00
2019-04-07T04:24:40.443Z,42.00
2019-04-07T04:27:16.924Z,42.27
2019-04-07T04:29:54.701Z,38.97
2019-04-07T04:32:28.796Z,44.87
2019-04-07T04:34:59.552Z,41.07
2019-04-07T04:37:40.173Z,43.13
2019-04-07T04:40:03.687Z,40.93
2019-04-07T04:42:35.801Z,41.90
2019-04-07T04:45:08.732Z,43.17
2019-04-07T04:47:40.724Z,41.70
2019-04-07T04:50:12.901Z,43.93
2019-04-07T04:52:45.422Z,43.73
2019-04-07T04:55:19.629Z,43.13
2019-04-07T04:57:52.074Z,44.47
2019-04-07T05:00:24.592Z,43.57
2019-04-07T05:02:55.969Z,41.63
2019-04-07T05:05:26.661Z,39.93
2019-04-07T05:08:02.528Z,37.20
2019-04-07T05:10:33.816Z,38.73
2019-04-07T05:13:05.326Z,38.73
2019-04-07T05:15:39.908Z,38.87
2019-04-07T05:18:13.075Z,44.50
2019-04-07T05:20:45.569Z,39.37
2019-04-07T05:23:17.481Z,41.13
2019-04-07T05:25:49.211Z,42.50
2019-04-07T05:28:21.657Z,41.13
2019-04-07T05:30:55.809Z,41.33
2019-04-07T05:33:26.869Z,39.00
2019-04-07T05:35:59.330Z,37.00
2019-04-07T05:38:32.574Z,39.47
2019-04-07T05:41:05.443Z,41.60
2019-04-07T05:43:36.970Z,35.83
2019-04-07T05:46:09.078Z,40.87
2019-04-07T05:48:40.398Z,42.40
2019-04-07T05:51:13.401Z,38.10
2019-04-07T05:53:46.321Z,42.17
2019-04-07T05:56:16.649Z,47.10
2019-04-07T05:58:48.632Z,38.63
2019-04-07T06:01:23.362Z,39.70
2019-04-07T06:03:53.401Z,39.30
2019-04-07T06:06:24.408Z,43.97
2019-04-07T06:08:55.597Z,45.67
2019-04-07T06:11:31.272Z,39.87
2019-04-07T06:14:00.812Z,43.23
2019-04-07T06:16:34.398Z,44.97
2019-04-07T06:19:08.086Z,46.83
2019-04-07T06:21:38.664Z,42.23
2019-04-07T06:24:10.123Z,44.80
2019-04-07T06:26:44.616Z,44.80
2019-04-07T06:29:14.905Z,47.33
2019-04-07T06:31:47.107Z,48.03
2019-04-07T06:34:18.793Z,42.37
2019-04-07T06:36:55.395Z,45.37
2019-04-07T06:39:26.622Z,48.00
2019-04-07T06:41:58.887Z,44.17
2019-04-07T06:44:30.707Z,42.00
2019-04-07T06:47:10.192Z,49.73
2019-04-07T06:50:05.534Z,46.20
2019-04-07T06:53:05.625Z,44.30
2019-04-07T06:55:53.991Z,51.47
2019-04-07T06:58:44.941Z,44.87
2019-04-07T07:01:36.330Z,44.87
2019-04-07T07:04:25.365Z,53.73
2019-04-07T07:07:06.177Z,49.73
2019-04-07T07:10:17.034Z,49.40
2019-04-07T07:12:59.667Z,46.37
2019-04-07T07:15:50.030Z,43.47
2019-04-07T07:18:44.975Z,45.93
2019-04-07T07:21:38.719Z,48.23
2019-04-07T07:24:10.398Z,49.07
2019-04-07T07:26:41.797Z,47.73
2019-04-07T07:29:18.133Z,50.60
2019-04-07T07:31:51.232Z,52.27
2019-04-07T07:34:23.855Z,43.43
2019-04-07T07:36:57.667Z,48.93
2019-04-07T07:39:27.403Z,46.40
2019-04-07T07:41:58.418Z,42.07
2019-04-07T07:44:31.274Z,42.97
2019-04-07T07:47:02.744Z,43.33
2019-04-07T07:49:41.494Z,41.37
2019-04-07T07:52:22.002Z,44.23
2019-04-07T07:54:53.640Z,43.47
2019-04-07T07:57:25.005Z,44.40
2019-04-07T07:59:57.262Z,44.33
2019-04-07T08:02:30.805Z,46.47
2019-04-07T08:05:01.839Z,41.47
2019-04-07T08:07:35.843Z,43.37
2019-04-07T08:10:07.456Z,41.47
2019-04-07T08:12:40.128Z,41.80
2019-04-07T08:15:13.756Z,42.57
2019-04-07T08:17:46.286Z,38.90
2019-04-07T08:20:19.881Z,42.03
2019-04-07T08:22:50.425Z,47.37
2019-04-07T08:25:25.062Z,43.90
2019-04-07T08:28:03.736Z,45.43
2019-04-07T08:30:34.685Z,42.10
2019-04-07T08:33:07.400Z,41.83
2019-04-07T08:35:40.682Z,42.23
2019-04-07T08:38:13.979Z,39.50
2019-04-07T08:40:45.623Z,40.70
2019-04-07T08:43:19.612Z,39.10
2019-04-07T08:45:48.167Z,40.53
2019-04-07T08:48:21.424Z,35.87
2019-04-07T08:51:00.479Z,37.33
2019-04-07T08:53:34.164Z,35.97
2019-04-07T08:56:11.935Z,33.27
2019-04-07T08:58:45.876Z,31.23
2019-04-07T09:01:20.372Z,36.77
2019-04-07T09:03:52.741Z,31.20
2019-04-07T09:06:27.276Z,39.20
2019-04-07T09:08:57.421Z,34.97
2019-04-07T09:11:30.358Z,32.50
2019-04-07T09:14:02.124Z,33.87
2019-04-07T09:16:42.316Z,32.23
2019-04-07T09:19:26.438Z,32.27
2019-04-07T09:22:20.100Z,29.67
2019-04-07T09:25:17.128Z,31.70
2019-04-07T09:28:13.356Z,33.23
2019-04-07T09:31:08.440Z,30.80
2019-04-07T09:34:04.587Z,28.17
2019-04-07T09:36:54.405Z,27.97
2019-04-07T09:39:54.007Z,22.93
2019-04-07T09:42:29.056Z,29.20
2019-04-07T09:45:12.790Z,21.10
2019-04-07T09:47:56.463Z,23.43
2019-04-07T09:50:54.456Z,25.23
2019-04-07T09:53:41.791Z,23.57
2019-04-07T09:56:32.856Z,30.87
2019-04-07T09:59:27.295Z,27.47
2019-04-07T10:02:25.209Z,29.30
2019-04-07T10:05:24.953Z,27.57
2019-04-07T10:08:17.710Z,27.77
2019-04-07T10:11:12.970Z,27.20
2019-04-07T10:14:01.208Z,26.40
2019-04-07T10:16:53.256Z,25.90
2019-04-07T10:19:40.041Z,22.13
2019-04-07T10:22:44.755Z,23.67
2019-04-07T10:25:34.451Z,23.37
2019-04-07T10:28:27.705Z,16.67
2019-04-07T10:31:19.773Z,17.40
2019-04-07T10:34:03.067Z,12.77
2019-04-07T10:36:48.785Z,13.47
2019-04-07T10:39:44.635Z,10.33
2019-04-07T10:42:27.190Z,9.90
2019-04-07T10:45:22.900Z,9.07
2019-04-07T10:48:19.241Z,9.43
2019-04-07T10:51:12.109Z,7.93
2019-04-07T10:53:52.755Z,9.43
2019-04-07T10:56:41.332Z,8.10
2019-04-07T10:59:49.318Z,9.53
2019-04-07T11:02:35.174Z,7.90
2019-04-07T11:05:22.904Z,8.03
2019-04-07T11:08:12.700Z,8.10
2019-04-07T11:11:10.614Z,7.17
2019-04-07T11:14:20.117Z,7.03
2019-04-07T11:17:08.167Z,10.77
2019-04-07T11:19:53.152Z,11.17
2019-04-07T11:22:44.108Z,6.30
2019-04-07T11:25:29.484Z,8.65
2019-04-07T11:28:30.556Z,7.42
2019-04-07T11:31:23.382Z,6.42
2019-04-07T11:34:09.246Z,6.08
2019-04-07T11:36:51.846Z,6.03
2019-04-07T11:39:53.466Z,7.85
2019-04-07T11:42:48.047Z,6.87
2019-04-07T11:45:52.296Z,6.30
2019-04-07T11:48:35.214Z,5.92
2019-04-07T11:51:15.208Z,5.87
2019-04-07T11:54:11.921Z,10.82
2019-04-07T11:56:53.407Z,6.42
2019-04-07T11:59:46.173Z,6.72
2019-04-07T12:02:44.270Z,6.37
2019-04-07T12:05:53.867Z,5.97
2019-04-07T12:08:41.907Z,5.62
2019-04-07T12:11:33.081Z,7.75
2019-04-07T12:14:22.944Z,5.62
2019-04-07T12:17:13.490Z,5.92
2019-04-07T12:19:56.894Z,6.85
2019-04-07T12:22:50.198Z,6.90
2019-04-07T12:25:40.082Z,5.85
2019-04-07T12:28:42.239Z,5.83
2019-04-07T12:31:20.097Z,4.55
2019-04-07T12:34:12.065Z,5.75
2019-04-07T12:37:04.629Z,6.03
2019-04-07T12:39:52.133Z,7.08
2019-04-07T12:42:41.682Z,5.78
2019-04-07T12:45:50.231Z,6.83
2019-04-07T12:48:36.139Z,6.97
2019-04-07T12:51:37.632Z,5.70
2019-04-07T12:54:16.813Z,5.47
2019-04-07T12:57:08.504Z,6.28
2019-04-07T13:00:05.933Z,6.30
2019-04-07T13:02:55.226Z,5.87
2019-04-07T13:05:47.028Z,5.15
2019-04-07T13:08:44.877Z,4.42
2019-04-07T13:11:42.817Z,5.95
2019-04-07T13:14:29.120Z,4.97
2019-04-07T13:17:24.983Z,5.87
2019-04-07T13:20:07.071Z,5.17
2019-04-07T13:22:50.867Z,5.05
2019-04-07T13:25:41.681Z,5.87
2019-04-07T13:28:21.735Z,5.62
2019-04-07T13:31:30.418Z,4.42
2019-04-07T13:34:20.344Z,5.15
2019-04-07T13:37:14.566Z,5.97
2019-04-07T13:40:01.519Z,6.72
2019-04-07T13:43:04.373Z,5.85
2019-04-07T13:45:53.930Z,5.10
2019-04-07T13:48:57.801Z,4.97
2019-04-07T13:51:44.649Z,3.67
2019-04-07T13:54:44.827Z,4.00
2019-04-07T13:57:33.841Z,4.87
2019-04-07T14:00:26.389Z,4.33
2019-04-07T14:03:16.691Z,4.58
2019-04-07T14:06:05.493Z,6.10
2019-04-07T14:09:04.181Z,8.23
2019-04-07T14:12:12.721Z,6.35
2019-04-07T14:14:52.645Z,6.58
2019-04-07T14:17:44.760Z,5.67
2019-04-07T14:20:49.638Z,5.47
2019-04-07T14:23:42.321Z,6.20
2019-04-07T14:26:34.683Z,5.25
2019-04-07T14:29:28.310Z,5.65
2019-04-07T14:32:18.442Z,5.42
2019-04-07T14:35:08.361Z,6.45
2019-04-07T14:37:54.721Z,7.65
2019-04-07T14:40:51.112Z,5.60
2019-04-07T14:43:47.478Z,7.22
2019-04-07T14:46:37.799Z,7.42
2019-04-07T14:49:28.655Z,7.62
2019-04-07T14:52:27.033Z,8.18
2019-04-07T14:55:14.939Z,7.80
2019-04-07T14:58:18.660Z,5.85
2019-04-07T15:01:10.716Z,6.15
2019-04-07T15:03:42.709Z,6.62
2019-04-07T15:06:14.030Z,6.50
2019-04-07T15:08:56.344Z,7.80
2019-04-07T15:11:44.449Z,7.50
2019-04-07T15:14:15.359Z,7.53
2019-04-07T15:16:45.835Z,6.55
2019-04-07T15:19:18.117Z,7.30
2019-04-07T15:21:53.032Z,6.87
2019-04-07T15:24:24.384Z,7.47
2019-04-07T15:26:57.732Z,7.12
2019-04-07T15:29:28.905Z,6.45
2019-04-07T15:32:01.800Z,7.42
2019-04-07T15:34:34.320Z,6.80
2019-04-07T15:37:06.686Z,9.90
2019-04-07T15:39:38.368Z,8.55
2019-04-07T15:42:11.553Z,8.60
2019-04-07T15:44:45.026Z,7.35
2019-04-07T15:47:15.564Z,7.45
2019-04-07T15:49:48.464Z,7.43
2019-04-07T15:52:19.605Z,7.50
2019-04-07T15:54:53.256Z,8.28
2019-04-07T15:57:24.114Z,9.73
2019-04-07T15:59:54.362Z,8.28
2019-04-07T16:02:25.762Z,9.23
2019-04-07T16:05:02.351Z,9.30
2019-04-07T16:07:32.804Z,9.48
2019-04-07T16:10:06.689Z,8.75
2019-04-07T16:12:50.023Z,9.33
2019-04-07T16:15:18.224Z,9.07
2019-04-07T16:17:52.723Z,10.30
2019-04-07T16:20:31.333Z,10.45
2019-04-07T16:22:59.697Z,10.03
2019-04-07T16:25:32.757Z,8.25
2019-04-07T16:28:04.034Z,9.10
2019-04-07T16:30:35.390Z,10.33
2019-04-07T16:33:10.496Z,9.20
2019-04-07T16:35:49.056Z,12.07
2019-04-07T16:38:22.603Z,9.47
2019-04-07T16:40:58.702Z,9.80
2019-04-07T16:43:32.162Z,9.43
2019-04-07T16:46:03.244Z,12.60
2019-04-07T16:48:39.241Z,11.40
2019-04-07T16:51:07.889Z,8.77
2019-04-07T16:53:42.801Z,11.40
2019-04-07T16:56:13.456Z,11.97
2019-04-07T16:58:45.819Z,10.67
2019-04-07T17:01:17.420Z,13.27
2019-04-07T17:03:49.962Z,11.60
2019-04-07T17:06:21.921Z,11.53
2019-04-07T17:08:54.097Z,13.20
2019-04-07T17:11:30.080Z,11.57
2019-04-07T17:14:02.937Z,12.60
2019-04-07T17:16:34.505Z,14.37
2019-04-07T17:19:05.623Z,12.47
2019-04-07T17:21:40.698Z,12.20
2019-04-07T17:24:11.853Z,13.23
2019-04-07T17:26:44.400Z,13.00
2019-04-07T17:29:19.037Z,13.97
2019-04-07T17:31:52.208Z,16.50
2019-04-07T17:34:26.166Z,13.40
2019-04-07T17:36:58.804Z,15.20
2019-04-07T17:39:56.962Z,17.00
2019-04-07T17:42:35.490Z,13.40
2019-04-07T17:45:24.734Z,15.03
2019-04-07T17:48:07.389Z,17.33
2019-04-07T17:51:06.355Z,17.47
2019-04-07T17:53:47.320Z,17.10
2019-04-07T17:56:38.165Z,15.90
2019-04-07T17:59:32.395Z,16.90
2019-04-07T18:02:30.390Z,14.33
2019-04-07T18:05:26.137Z,13.53
2019-04-07T18:08:17.962Z,15.03
2019-04-07T18:11:02.312Z,19.60
2019-04-07T18:13:51.536Z,14.33
2019-04-07T18:16:41.819Z,15.80
2019-04-07T18:19:31.875Z,15.33
2019-04-07T18:22:10.236Z,13.87
2019-04-07T18:25:02.747Z,12.73
2019-04-07T18:27:53.299Z,16.20
2019-04-07T18:30:36.032Z,17.53
2019-04-07T18:33:31.367Z,18.47
2019-04-07T18:36:23.687Z,15.80
2019-04-07T18:39:17.349Z,19.53
2019-04-07T18:42:02.055Z,14.67
2019-04-07T18:44:52.095Z,14.77
2019-04-07T18:47:33.791Z,14.80
2019-04-07T18:50:28.718Z,15.07
2019-04-07T18:53:16.712Z,13.27
2019-04-07T18:56:09.311Z,15.27
2019-04-07T18:59:12.988Z,14.07
2019-04-07T19:02:12.288Z,14.53
2019-04-07T19:05:01.317Z,16.03
2019-04-07T19:07:50.406Z,15.63
2019-04-07T19:10:35.561Z,17.57
2019-04-07T19:13:17.582Z,15.60
2019-04-07T19:16:20.630Z,14.97
2019-04-07T19:19:16.095Z,14.87
2019-04-07T19:22:18.876Z,16.50
2019-04-07T19:25:27.145Z,18.80
2019-04-07T19:28:06.007Z,23.47
2019-04-07T19:31:17.477Z,26.90
2019-04-07T19:34:13.423Z,26.30
2019-04-07T19:36:55.071Z,26.87
2019-04-07T19:39:35.564Z,28.23
2019-04-07T19:42:41.598Z,29.87
2019-04-07T19:45:35.064Z,25.73
2019-04-07T19:48:23.117Z,26.23
2019-04-07T19:51:15.491Z,25.43
2019-04-07T19:54:04.843Z,24.13
2019-04-07T19:57:04.688Z,23.33
2019-04-07T20:00:00.565Z,24.07
2019-04-07T20:03:09.653Z,22.83
2019-04-07T20:05:56.206Z,22.97
2019-04-07T20:08:39.856Z,23.67
2019-04-07T20:11:30.754Z,22.97
2019-04-07T20:14:16.884Z,24.27
2019-04-07T20:17:09.666Z,24.17
2019-04-07T20:19:58.556Z,24.40
2019-04-07T20:23:00.156Z,24.63
2019-04-07T20:25:47.889Z,27.97
2019-04-07T20:28:37.876Z,27.43
2019-04-07T20:31:20.390Z,26.33
2019-04-07T20:34:09.723Z,29.13
2019-04-07T20:37:09.366Z,24.50
2019-04-07T20:39:58.840Z,28.90
2019-04-07T20:42:58.280Z,25.47
2019-04-07T20:45:49.124Z,24.53
2019-04-07T20:48:37.069Z,22.30
2019-04-07T20:51:28.421Z,24.03
2019-04-07T20:54:23.751Z,22.60
2019-04-07T20:57:23.763Z,21.33
2019-04-07T21:00:18.663Z,23.27
2019-04-07T21:03:11.224Z,21.73
2019-04-07T21:05:58.224Z,21.37
2019-04-07T21:08:50.037Z,20.77
2019-04-07T21:11:47.511Z,22.77
2019-04-07T21:14:26.027Z,19.27
2019-04-07T21:17:18.716Z,22.83
2019-04-07T21:20:12.882Z,23.70
2019-04-07T21:22:54.013Z,23.03
2019-04-07T21:25:35.767Z,21.50
2019-04-07T21:28:26.809Z,20.57
2019-04-07T21:31:17.464Z,20.70
2019-04-07T21:33:59.303Z,20.00
2019-04-07T21:36:52.556Z,25.20
2019-04-07T21:39:41.753Z,21.07
2019-04-07T21:42:31.867Z,23.53
2019-04-07T21:45:29.139Z,26.43
2019-04-07T21:48:09.586Z,23.67
2019-04-07T21:50:51.661Z,23.17
2019-04-07T21:53:34.617Z,27.03
2019-04-07T21:56:43.132Z,27.30
2019-04-07T21:59:29.285Z,31.33
2019-04-07T22:02:19.580Z,28.67
2019-04-07T22:05:24.021Z,27.70
2019-04-07T22:08:03.680Z,28.67
2019-04-07T22:10:34.015Z,29.23
2019-04-07T22:13:10.087Z,30.97
2019-04-07T22:15:47.923Z,29.40
2019-04-07T22:18:13.574Z,29.37
2019-04-07T22:20:43.795Z,26.00
2019-04-07T22:23:14.666Z,26.03
2019-04-07T22:25:51.279Z,28.40
2019-04-07T22:28:27.732Z,28.10
2019-04-07T22:30:57.414Z,28.23
2019-04-07T22:33:31.062Z,26.27
2019-04-07T22:36:02.104Z,31.03
2019-04-07T22:38:39.326Z,28.80
2019-04-07T22:41:19.714Z,29.73
2019-04-07T22:43:52.024Z,30.60
2019-04-07T22:46:27.227Z,31.67
2019-04-07T22:48:58.741Z,29.60
2019-04-07T22:51:30.689Z,27.83
2019-04-07T22:54:01.537Z,28.40
2019-04-07T22:56:37.881Z,30.37
2019-04-07T22:59:09.859Z,25.97
2019-04-07T23:01:41.699Z,28.50
2019-04-07T23:04:12.584Z,28.03
2019-04-07T23:06:46.205Z,26.87
2019-04-07T23:09:21.853Z,27.03
2019-04-07T23:11:54.954Z,31.60
2019-04-07T23:14:27.562Z,27.00
2019-04-07T23:17:01.651Z,25.57
2019-04-07T23:19:34.345Z,25.83
2019-04-07T23:22:09.860Z,25.70
2019-04-07T23:24:43.270Z,25.43
2019-04-07T23:27:14.825Z,26.07
2019-04-07T23:29:47.373Z,27.67
2019-04-07T23:32:19.927Z,26.93
2019-04-07T23:34:52.151Z,25.30
2019-04-07T23:37:26.458Z,25.47
2019-04-07T23:39:58.809Z,24.57
2019-04-07T23:42:32.672Z,28.17
2019-04-07T23:45:03.171Z,27.03
2019-04-07T23:47:36.683Z,26.17
2019-04-07T23:50:09.567Z,26.43
2019-04-07T23:52:41.376Z,27.73
2019-04-07T23:55:12.904Z,28.07
2019-04-07T23:57:43.261Z,27.87
